WetterOnline ( https://www.wetteronline.ch )

Wetter aktuell Frankfurt am Main

Aktuelles Wetter: Offenbach (119m)

6-stündlich | Neueste Meldungen
Ortszeit Temperatur Wetter
Di, 23.04. 20:00 19.6° C bewölkt
Di, 23.04. 14:00 20.6° C leicht bewölkt
Di, 23.04. 8:00 10.2° C wolkig
Di, 23.04. 2:00 13.9° C fast wolkenlos
Mo, 22.04. 20:00 22.4° C leicht bewölkt
Mo, 22.04. 14:00 23.3° C leicht bewölkt
Mo, 22.04. 8:00 9.0° C leicht bewölkt
Mo, 22.04. 2:00 8.7° C wolkenlos
Ortszeit Temperatur Wetter
Di, 23.04. 20:30 18.8° C bedeckt
Di, 23.04. 20:10 18.9° C bedeckt
Di, 23.04. 20:00 19.6° C bewölkt
Di, 23.04. 19:50 19.6° C bewölkt
Di, 23.04. 19:40 19.9° C bewölkt
Di, 23.04. 19:30 20.7° C bewölkt
Di, 23.04. 19:00 21.1° C bedeckt
Di, 23.04. 18:30 21.8° C bedeckt
Di, 23.04. 18:00 22.1° C bewölkt
Di, 23.04. 17:30 21.8° C wolkig
Ortszeit Relative Feuchte Sichtweite
Di, 23.04. 20:00 47% 35 km
Di, 23.04. 14:00 40% 60 km
Di, 23.04. 8:00 60% 40 km
Di, 23.04. 2:00 40% 60 km
Mo, 22.04. 20:00 20% 65 km
Mo, 22.04. 14:00 19% 60 km
Mo, 22.04. 8:00 68% 40 km
Mo, 22.04. 2:00 68% 45 km
Ortszeit Relative Feuchte Sichtweite
Di, 23.04. 20:30 49% 30 km
Di, 23.04. 20:10 50% -
Di, 23.04. 20:00 47% 35 km
Di, 23.04. 19:50 47% -
Di, 23.04. 19:40 47% -
Di, 23.04. 19:30 41% 30 km
Di, 23.04. 19:00 40% 30 km
Di, 23.04. 18:30 38% 40 km
Di, 23.04. 18:00 35% 45 km
Di, 23.04. 17:30 35% 35 km
Ortszeit Niederschlagsmenge Niederschlagsart
Di, 23.04. 20:00 0.0 l/m2 in 12 Std. -
Di, 23.04. 14:00 0.0 l/m2 in 6 Std. -
Di, 23.04. 8:00 0.0 l/m2 in 12 Std. -
Di, 23.04. 2:00 0.0 l/m2 in 6 Std. -
Mo, 22.04. 20:00 0.0 l/m2 in 12 Std. -
Mo, 22.04. 14:00 0.0 l/m2 in 6 Std. -
Mo, 22.04. 8:00 0.0 l/m2 in 12 Std. -
Mo, 22.04. 2:00 0.0 l/m2 in 6 Std. -
Ortszeit Niederschlagsmenge Niederschlagsart
Di, 23.04. 20:30 0.0 l/m2 in 1 Std. -
Di, 23.04. 20:10 keine Meldung -
Di, 23.04. 20:00 0.0 l/m2 in 1 Std. -
Di, 23.04. 19:50 keine Meldung -
Di, 23.04. 19:40 keine Meldung -
Di, 23.04. 19:30 0.0 l/m2 in 1 Std. -
Di, 23.04. 19:00 0.0 l/m2 in 1 Std. -
Di, 23.04. 18:30 0.0 l/m2 in 1 Std. -
Di, 23.04. 18:00 0.0 l/m2 in 1 Std. -
Di, 23.04. 17:30 0.0 l/m2 in 1 Std. -
Ortszeit Stärke Spitze Richtung
km/h Bft. km/h Grad Sektor
Di, 23.04. 20:00 0 0 36 - -
Di, 23.04. 14:00 11 2 32 130° SO
Di, 23.04. 8:00 6 1 20 10° N
Di, 23.04. 2:00 13 3 26 60° NO
Mo, 22.04. 20:00 15 3 35 70° O
Mo, 22.04. 14:00 17 3 33 100° O
Mo, 22.04. 8:00 7 2 11 40° NO
Mo, 22.04. 2:00 4 1 14 190° S
Ortszeit Stärke Spitze Richtung
km/h Bft. km/h Grad Sektor
Di, 23.04. 20:30 4 1 4 70° O
Di, 23.04. 20:10 4 1 - 100° O
Di, 23.04. 20:00 0 0 11 - -
Di, 23.04. 19:50 2 1 - 180° S
Di, 23.04. 19:40 4 1 - 240° SW
Di, 23.04. 19:30 4 1 11 220° SW
Di, 23.04. 19:00 6 1 19 230° SW
Di, 23.04. 18:30 11 2 18 210° SW
Di, 23.04. 18:00 9 2 33 140° SO
Di, 23.04. 17:30 14 3 36 160° S
Ortszeit Untergrenze Bedeckung Gattung
total tief tief mittel hoch
Di, 23.04. 20:00 2700 m 8/8 7/8 - - -
Di, 23.04. 14:00 8400 m 7/8 0/8 - - -
Di, 23.04. 8:00 8700 m 8/8 0/8 - - -
Di, 23.04. 2:00 9000 m 2/8 0/8 - - -
Mo, 22.04. 20:00 7500 m 3/8 0/8 - - -
Mo, 22.04. 14:00 9000 m 8/8 0/8 - - -
Mo, 22.04. 8:00 10500 m 7/8 0/8 - - -
Mo, 22.04. 2:00 - 0/8 0/8 - - -
Ortszeit Bedeckungsgrad in Achtel und Wolkenuntergrenze
Di, 23.04. 20:30 6(3000m) 8(3900m)
Di, 23.04. 20:10 7(3000m) 8(3900m)
Di, 23.04. 20:00 7(2700m) 8(3900m)
Di, 23.04. 19:50 7(2700m) 8(3900m)
Di, 23.04. 19:40 7(2700m) 8(3900m)
Di, 23.04. 19:30 7(3000m)
Di, 23.04. 19:00 7(3900m) 8(5700m) 8(7500m)
Di, 23.04. 18:30 4(3300m) 8(3900m) 8(6000m)
Di, 23.04. 18:00 4(3300m) 8(7200m) 8(7800m)
Di, 23.04. 17:30 2(3300m) 8(8700m) 8(9000m)
Ortszeit Luftdruck NN (hPa) Tendenz (hPa in 3 Std.)
Di, 23.04. 20:00 998 + 0,1
Di, 23.04. 14:00 999 - 1,1
Di, 23.04. 8:00 1002 - 0,9
Di, 23.04. 2:00 1004 - 0,9
Mo, 22.04. 20:00 1004 - 1,3
Mo, 22.04. 14:00 1008 - 2,9
Mo, 22.04. 8:00 1013 - 1,0
Mo, 22.04. 2:00 1015 - 0,5
Ortszeit Luftdruck NN (hPa) Tendenz (hPa in 3 Std.)
Di, 23.04. 20:30 998 + 0,2
Di, 23.04. 20:10 998 keine Meldung
Di, 23.04. 20:00 998 + 0,1
Di, 23.04. 19:50 998 keine Meldung
Di, 23.04. 19:40 998 keine Meldung
Di, 23.04. 19:30 998 - 0,2
Di, 23.04. 19:00 998 - 0,4
Di, 23.04. 18:30 998 - 0,7
Di, 23.04. 18:00 997 - 0,9
Di, 23.04. 17:30 998 - 0,9
Ortszeit Schneehöhe (cm)
Di, 23.04. 20:00 0
Di, 23.04. 14:00 0
Di, 23.04. 8:00 0
Di, 23.04. 2:00 0
Mo, 22.04. 20:00 0
Mo, 22.04. 14:00 0
Mo, 22.04. 8:00 0
Mo, 22.04. 2:00 0
Ortszeit Schneehöhe (cm)
Di, 23.04. 20:30 0
Di, 23.04. 20:10 0
Di, 23.04. 20:00 0
Di, 23.04. 19:50 0
Di, 23.04. 19:40 0
Di, 23.04. 19:30 0
Di, 23.04. 19:00 0
Di, 23.04. 18:30 0
Di, 23.04. 18:00 0
Di, 23.04. 17:30 0
Link zu dieser Seite / Seite empfehlen

Das Wetter in ...